Time;durP1;ratioP1;P1;durP2;ratioP2;P2;SDS_P1;SDS_P2;PMS_P1;PMS_P2;Temp;Humidity;BMP_temperature;BMP_pressure;BME280_temperature;BME280_humidity;BME280_pressure;Samples;Min_cycle;Max_cycle;Signal;HPM_P1;HPM_P2
2023/12/27 00:00:43;;;;;;;13.63;3.72;;;6.90;99.90;;;;;;5045689;28;20075;-80
2023/12/27 00:03:08;;;;;;;16.38;3.47;;;7.10;99.90;;;;;;5045645;28;20060;-80
2023/12/27 00:05:34;;;;;;;9.85;3.17;;;7.40;99.90;;;;;;5047178;28;20127;-76
2023/12/27 00:08:00;;;;;;;11.57;3.55;;;7.30;99.90;;;;;;5029915;28;20059;-77
2023/12/27 00:10:25;;;;;;;10.85;3.10;;;6.90;99.90;;;;;;5031777;28;20555;-74
2023/12/27 00:12:51;;;;;;;12.50;2.70;;;7.60;99.90;;;;;;5054683;28;20072;-77
2023/12/27 00:15:17;;;;;;;14.15;3.40;;;7.50;99.90;;;;;;5051726;28;20429;-79
2023/12/27 00:17:43;;;;;;;14.75;3.70;;;7.60;99.90;;;;;;5051226;28;20033;-75
2023/12/27 00:20:09;;;;;;;14.68;3.42;;;7.10;99.90;;;;;;5048379;28;20078;-77
2023/12/27 00:22:34;;;;;;;11.50;3.53;;;7.00;99.90;;;;;;5051289;28;20080;-73
2023/12/27 00:25:00;;;;;;;10.40;4.00;;;6.70;99.90;;;;;;5047794;28;20069;-79
2023/12/27 00:27:26;;;;;;;13.23;3.38;;;7.60;99.90;;;;;;5049578;28;20079;-78
2023/12/27 00:29:52;;;;;;;15.82;4.20;;;7.10;99.90;;;;;;5030045;28;20040;-77
2023/12/27 00:32:17;;;;;;;12.30;3.45;;;7.60;99.90;;;;;;5049630;28;20048;-78
2023/12/27 00:34:43;;;;;;;12.98;4.30;;;7.20;99.90;;;;;;5056551;28;20025;-71
2023/12/27 00:37:09;;;;;;;12.10;3.75;;;7.30;99.90;;;;;;5057027;28;20045;-76
2023/12/27 00:39:35;;;;;;;13.90;4.00;;;7.70;99.90;;;;;;5032207;28;20041;-74
2023/12/27 00:42:01;;;;;;;12.25;4.57;;;6.80;99.90;;;;;;5032669;28;20374;-73
2023/12/27 00:44:27;;;;;;;11.20;3.97;;;6.80;99.90;;;;;;5045883;28;20067;-74
2023/12/27 00:46:52;;;;;;;17.08;4.50;;;7.20;99.90;;;;;;5056144;28;20057;-77
2023/12/27 00:49:18;;;;;;;18.05;5.22;;;6.70;99.90;;;;;;5050189;28;20103;-75
2023/12/27 00:51:44;;;;;;;17.80;4.80;;;6.70;99.90;;;;;;5031706;28;20378;-74
2023/12/27 00:54:10;;;;;;;10.00;4.35;;;7.60;1.00;;;;;;5031234;28;20047;-77
2023/12/27 00:56:36;;;;;;;11.40;4.28;;;7.60;1.00;;;;;;5031557;28;20033;-77
2023/12/27 00:59:02;;;;;;;7.72;3.13;;;7.80;1.00;;;;;;5015862;28;20118;-74
2023/12/27 01:01:30;;;;;;;8.15;3.70;;;7.30;1.00;;;;;;5032050;28;20359;-77
2023/12/27 01:03:56;;;;;;;9.35;3.35;;;7.70;1.00;;;;;;5031048;28;20167;-72
2023/12/27 01:06:22;;;;;;;16.05;4.40;;;7.80;1.00;;;;;;5049086;28;20722;-80
2023/12/27 01:08:47;;;;;;;13.05;3.60;;;7.00;1.00;;;;;;5047994;28;20037;-73
2023/12/27 01:11:13;;;;;;;12.77;4.38;;;7.00;1.00;;;;;;5054942;28;20052;-74
2023/12/27 01:13:39;;;;;;;20.20;4.43;;;7.50;99.90;;;;;;5048368;28;20040;-74
2023/12/27 01:16:05;;;;;;;13.32;3.83;;;6.60;99.90;;;;;;5045926;28;20041;-76
2023/12/27 01:18:31;;;;;;;8.95;3.10;;;6.50;99.90;;;;;;5048222;28;20044;-77
2023/12/27 01:20:57;;;;;;;12.15;4.00;;;7.40;1.00;;;;;;5047912;28;20033;-75
2023/12/27 01:23:22;;;;;;;15.57;4.72;;;6.60;1.00;;;;;;5048756;28;20091;-79
2023/12/27 01:25:48;;;;;;;12.20;3.45;;;6.70;1.00;;;;;;5055235;28;20507;-74
2023/12/27 01:28:14;;;;;;;13.40;3.53;;;6.90;1.00;;;;;;5048768;28;20049;-77
2023/12/27 01:30:40;;;;;;;11.48;3.88;;;7.50;1.00;;;;;;5058725;28;20033;-74
2023/12/27 01:33:05;;;;;;;15.38;4.43;;;6.60;1.00;;;;;;5031238;28;20111;-73
2023/12/27 01:35:31;;;;;;;9.05;3.90;;;6.70;1.00;;;;;;5047896;28;20033;-75
2023/12/27 01:37:57;;;;;;;11.32;4.50;;;6.70;12.50;;;;;;5035629;28;20041;-78
2023/12/27 01:40:22;;;;;;;12.50;3.90;;;7.60;24.50;;;;;;5052569;28;20048;-73
2023/12/27 01:42:48;;;;;;;11.43;3.70;;;7.60;13.50;;;;;;5052265;28;20377;-75
2023/12/27 01:45:14;;;;;;;11.48;3.78;;;7.60;30.80;;;;;;5035046;28;20048;-77
2023/12/27 01:47:41;;;;;;;10.00;3.20;;;6.80;27.10;;;;;;5034444;28;20044;-75
2023/12/27 01:50:10;;;;;;;10.57;3.75;;;6.60;30.90;;;;;;5043246;28;20045;-73
2023/12/27 01:52:37;;;;;;;12.88;3.38;;;6.60;56.20;;;;;;5043352;28;20041;-74
2023/12/27 01:55:04;;;;;;;10.57;2.70;;;7.40;90.70;;;;;;5035249;28;20048;-77
2023/12/27 01:57:29;;;;;;;14.98;3.50;;;6.90;99.90;;;;;;5050794;28;20124;-74
2023/12/27 01:59:55;;;;;;;12.73;3.80;;;6.70;99.90;;;;;;5035840;28;20128;-73
2023/12/27 02:02:22;;;;;;;14.68;4.00;;;6.70;99.90;;;;;;5052642;28;20481;-73
2023/12/27 02:04:48;;;;;;;14.75;3.58;;;7.10;99.90;;;;;;5051774;28;20036;-77
2023/12/27 02:07:14;;;;;;;10.73;3.47;;;7.50;99.90;;;;;;5035450;28;20037;-78
2023/12/27 02:09:41;;;;;;;8.32;2.30;;;7.10;99.90;;;;;;5052007;28;20045;-74
2023/12/27 02:12:07;;;;;;;13.18;3.85;;;7.40;99.90;;;;;;5043448;28;20053;-74
2023/12/27 02:14:33;;;;;;;11.20;3.53;;;7.40;99.90;;;;;;5018890;28;20036;-72
2023/12/27 02:17:00;;;;;;;10.52;3.35;;;7.40;99.90;;;;;;5032569;28;20028;-72
2023/12/27 02:19:28;;;;;;;9.05;3.25;;;7.40;99.90;;;;;;5051854;28;20087;-74
2023/12/27 02:21:54;;;;;;;15.95;3.60;;;7.30;99.90;;;;;;5033244;28;20039;-80
2023/12/27 02:24:22;;;;;;;11.57;3.28;;;7.40;99.90;;;;;;5051627;28;20048;-77
2023/12/27 02:26:47;;;;;;;11.43;3.22;;;7.50;99.90;;;;;;5049863;28;20082;-76
2023/12/27 02:29:14;;;;;;;12.07;3.72;;;6.50;99.90;;;;;;5050940;28;20561;-76
2023/12/27 02:31:40;;;;;;;12.82;3.72;;;7.50;99.90;;;;;;5034777;28;20036;-78
2023/12/27 02:34:05;;;;;;;11.55;3.30;;;7.20;99.90;;;;;;5011927;28;20102;-77
2023/12/27 02:36:31;;;;;;;12.88;3.10;;;7.00;99.90;;;;;;5051597;28;20083;-78
2023/12/27 02:38:57;;;;;;;11.43;3.80;;;6.80;99.90;;;;;;5031892;28;20469;-73
2023/12/27 02:41:22;;;;;;;12.38;3.88;;;7.30;99.90;;;;;;5060001;28;20731;-74
2023/12/27 02:43:48;;;;;;;10.25;3.17;;;7.30;99.90;;;;;;5075365;28;20127;-77
2023/12/27 02:46:14;;;;;;;9.38;2.97;;;6.50;99.90;;;;;;5051568;28;20037;-78
2023/12/27 02:48:39;;;;;;;14.77;3.13;;;7.30;1.00;;;;;;5047122;28;20068;-75
2023/12/27 02:51:06;;;;;;;9.82;2.72;;;7.10;1.00;;;;;;5034964;28;20041;-72
2023/12/27 02:53:31;;;;;;;9.40;3.38;;;7.00;1.00;;;;;;5034852;28;20090;-77
2023/12/27 02:55:57;;;;;;;13.57;3.45;;;7.20;1.00;;;;;;5034327;28;20037;-75
2023/12/27 02:58:23;;;;;;;11.98;4.07;;;7.20;22.60;;;;;;5050166;28;20071;-73
2023/12/27 03:00:49;;;;;;;14.65;3.88;;;7.10;34.30;;;;;;5050989;28;20436;-75
2023/12/27 03:03:15;;;;;;;15.88;4.00;;;7.20;24.80;;;;;;5059680;28;20382;-76
2023/12/27 03:05:41;;;;;;;15.32;4.32;;;6.30;51.30;;;;;;5076392;28;20041;-78
2023/12/27 03:08:06;;;;;;;10.13;3.20;;;6.30;35.30;;;;;;5033656;28;20041;-74
2023/12/27 03:10:32;;;;;;;8.82;3.35;;;6.40;99.90;;;;;;5031023;28;20493;-77
2023/12/27 03:12:58;;;;;;;10.52;3.83;;;7.10;99.90;;;;;;5050204;28;20045;-77
2023/12/27 03:15:24;;;;;;;12.98;3.75;;;6.40;99.90;;;;;;5033991;28;20056;-78
2023/12/27 03:17:49;;;;;;;10.88;3.35;;;6.40;99.90;;;;;;5034055;28;20727;-78
2023/12/27 03:20:15;;;;;;;13.90;3.88;;;6.80;99.90;;;;;;5062146;28;20126;-73
2023/12/27 03:22:40;;;;;;;14.10;3.35;;;6.50;99.90;;;;;;5034355;28;20033;-78
2023/12/27 03:25:06;;;;;;;10.68;4.13;;;6.70;99.90;;;;;;5047045;28;20029;-76
2023/12/27 03:27:32;;;;;;;14.57;4.70;;;6.30;99.90;;;;;;5034415;28;20118;-76
2023/12/27 03:29:58;;;;;;;13.07;4.78;;;6.30;99.90;;;;;;5050411;28;20056;-73
2023/12/27 03:32:24;;;;;;;10.95;3.72;;;6.40;94.10;;;;;;5050554;28;20087;-72
2023/12/27 03:34:50;;;;;;;11.38;4.53;;;7.40;99.90;;;;;;5034160;28;20059;-77
2023/12/27 03:37:16;;;;;;;8.80;4.10;;;6.40;99.90;;;;;;5050417;28;20033;-80
2023/12/27 03:39:43;;;;;;;15.68;4.25;;;6.50;99.90;;;;;;5049683;28;21415;-74
2023/12/27 03:42:09;;;;;;;14.30;4.40;;;6.20;99.90;;;;;;5061720;28;20767;-76
2023/12/27 03:44:35;;;;;;;12.30;4.85;;;6.60;99.90;;;;;;5050340;28;20040;-75
2023/12/27 03:47:01;;;;;;;13.93;3.70;;;7.30;99.90;;;;;;5058679;28;20037;-73
2023/12/27 03:49:26;;;;;;;7.70;3.40;;;6.30;99.90;;;;;;5033569;28;20080;-75
2023/12/27 03:51:52;;;;;;;11.35;3.83;;;6.50;99.90;;;;;;5049734;28;20515;-74
2023/12/27 03:54:18;;;;;;;12.73;3.50;;;7.30;99.90;;;;;;5047790;28;20162;-73
2023/12/27 03:56:44;;;;;;;17.02;3.90;;;7.10;99.90;;;;;;5048390;28;20033;-75
2023/12/27 03:59:10;;;;;;;13.10;3.88;;;6.30;99.90;;;;;;5032036;28;20602;-75
2023/12/27 04:01:36;;;;;;;12.82;3.90;;;7.10;99.90;;;;;;5076831;28;20040;-75
2023/12/27 04:04:02;;;;;;;16.70;4.85;;;6.20;99.90;;;;;;5033317;28;20094;-75
2023/12/27 04:06:28;;;;;;;13.20;3.88;;;6.60;99.90;;;;;;5059639;28;20421;-74
2023/12/27 04:08:54;;;;;;;10.82;4.00;;;6.80;99.90;;;;;;5031739;28;20095;-74
2023/12/27 04:11:19;;;;;;;18.98;4.22;;;6.90;99.90;;;;;;5049045;28;20476;-74
2023/12/27 04:13:45;;;;;;;12.20;4.93;;;6.40;99.90;;;;;;5049670;28;20052;-77
2023/12/27 04:16:11;;;;;;;16.02;5.00;;;7.30;99.90;;;;;;5032820;28;20110;-75
2023/12/27 04:18:37;;;;;;;10.35;4.28;;;6.30;99.90;;;;;;5032857;28;20040;-73
2023/12/27 04:21:02;;;;;;;14.98;4.47;;;6.50;99.90;;;;;;5032421;28;20123;-78
2023/12/27 04:23:28;;;;;;;11.50;5.03;;;6.30;99.90;;;;;;5032209;28;20044;-77
2023/12/27 04:25:54;;;;;;;14.07;4.00;;;6.40;99.90;;;;;;5030792;28;20393;-73
2023/12/27 04:28:20;;;;;;;12.15;3.78;;;6.30;99.90;;;;;;5015866;28;20048;-73
2023/12/27 04:30:46;;;;;;;11.63;3.95;;;7.40;99.90;;;;;;5033252;28;20048;-73
2023/12/27 04:33:11;;;;;;;13.45;4.32;;;6.50;99.90;;;;;;5076009;28;20041;-74
2023/12/27 04:35:37;;;;;;;11.82;4.18;;;6.50;99.90;;;;;;5032571;28;20119;-74
2023/12/27 04:38:03;;;;;;;13.55;4.70;;;6.60;99.90;;;;;;5032281;28;20440;-76
2023/12/27 04:40:28;;;;;;;13.00;5.25;;;7.00;99.90;;;;;;5032301;28;20060;-74
2023/12/27 04:42:54;;;;;;;13.02;4.13;;;6.40;99.90;;;;;;5049519;28;20049;-75
2023/12/27 04:45:20;;;;;;;13.80;4.72;;;6.90;99.90;;;;;;5049061;28;20090;-77
2023/12/27 04:47:45;;;;;;;8.18;4.43;;;6.40;99.90;;;;;;5032528;28;20032;-76
2023/12/27 04:50:11;;;;;;;12.02;3.85;;;7.50;99.90;;;;;;5032223;28;20041;-75
2023/12/27 04:52:37;;;;;;;12.25;4.28;;;6.70;99.90;;;;;;5060358;28;20060;-77
2023/12/27 04:55:03;;;;;;;21.35;5.65;;;7.60;99.90;;;;;;5046855;28;20083;-74
2023/12/27 04:57:29;;;;;;;11.68;4.28;;;7.10;99.90;;;;;;5049388;28;20043;-77
2023/12/27 04:59:54;;;;;;;16.05;5.28;;;7.40;99.90;;;;;;5032362;28;20040;-75
2023/12/27 05:02:20;;;;;;;13.55;4.30;;;7.00;99.90;;;;;;5032049;28;20048;-76
2023/12/27 05:04:45;;;;;;;16.27;5.60;;;7.00;99.90;;;;;;5032666;28;20045;-74
2023/12/27 05:07:11;;;;;;;17.88;4.95;;;6.50;99.90;;;;;;5048806;28;20077;-77
2023/12/27 05:09:37;;;;;;;10.65;4.50;;;7.50;99.90;;;;;;5031154;28;20365;-76
2023/12/27 05:12:03;;;;;;;14.07;4.50;;;7.40;99.90;;;;;;5031063;28;20053;-74
2023/12/27 05:14:28;;;;;;;15.40;5.50;;;6.70;99.90;;;;;;5032374;28;20068;-73
2023/12/27 05:16:57;;;;;;;11.63;4.47;;;7.60;99.90;;;;;;5049172;28;20033;-74
2023/12/27 05:19:22;;;;;;;14.98;4.32;;;7.60;99.90;;;;;;5044505;28;20501;-78
2023/12/27 05:21:48;;;;;;;12.52;5.82;;;7.40;99.90;;;;;;5048618;28;20131;-76
2023/12/27 05:24:14;;;;;;;12.98;4.18;;;6.60;99.90;;;;;;5047318;28;20172;-74
2023/12/27 05:26:39;;;;;;;16.55;5.78;;;6.50;99.90;;;;;;5032515;28;20036;-76
2023/12/27 05:29:05;;;;;;;17.00;4.95;;;6.60;99.90;;;;;;5048120;28;20458;-74
2023/12/27 05:31:31;;;;;;;12.45;5.03;;;6.30;99.90;;;;;;5048782;28;20488;-76
2023/12/27 05:33:57;;;;;;;11.40;4.80;;;7.60;99.90;;;;;;5032049;28;20041;-75
2023/12/27 05:36:22;;;;;;;14.20;6.05;;;7.40;99.90;;;;;;5031965;28;20078;-77
2023/12/27 05:38:48;;;;;;;15.93;6.30;;;7.50;99.90;;;;;;5040488;28;20482;-77
2023/12/27 05:41:14;;;;;;;16.05;6.22;;;7.00;99.90;;;;;;5056512;28;20048;-77
2023/12/27 05:43:39;;;;;;;14.20;4.90;;;6.60;99.90;;;;;;5031872;28;20124;-73
2023/12/27 05:46:05;;;;;;;12.80;5.00;;;7.60;99.90;;;;;;5048289;28;20052;-72
2023/12/27 05:48:31;;;;;;;12.90;5.10;;;7.30;99.90;;;;;;5048595;28;20044;-78
2023/12/27 05:50:57;;;;;;;13.13;5.30;;;6.40;99.90;;;;;;5031946;28;20055;-74
2023/12/27 05:53:22;;;;;;;15.05;6.00;;;7.60;99.90;;;;;;5047897;28;20037;-73
2023/12/27 05:55:48;;;;;;;15.65;5.18;;;6.70;99.90;;;;;;5045286;28;20036;-74
2023/12/27 05:58:14;;;;;;;13.82;4.97;;;7.10;99.90;;;;;;5031124;28;20355;-78
2023/12/27 06:00:39;;;;;;;9.93;4.95;;;6.60;99.90;;;;;;5031915;28;20036;-73
2023/12/27 06:03:05;;;;;;;17.70;6.60;;;7.80;99.90;;;;;;5031525;28;20064;-74
2023/12/27 06:05:31;;;;;;;14.07;5.00;;;6.50;99.90;;;;;;5048086;28;20051;-77
2023/12/27 06:07:57;;;;;;;12.57;5.55;;;7.40;99.90;;;;;;5015210;28;20067;-79
2023/12/27 06:10:24;;;;;;;14.32;4.72;;;7.80;99.90;;;;;;5044886;28;20041;-74
2023/12/27 06:12:49;;;;;;;15.57;6.30;;;6.50;99.90;;;;;;5047752;28;20456;-78
2023/12/27 06:15:15;;;;;;;19.08;6.10;;;7.80;99.90;;;;;;5048251;28;20044;-77
2023/12/27 06:17:42;;;;;;;18.33;5.82;;;6.60;99.90;;;;;;5073236;28;20037;-76
2023/12/27 06:20:09;;;;;;;15.07;5.63;;;6.60;99.90;;;;;;5031376;28;20045;-77
2023/12/27 06:22:34;;;;;;;17.33;6.30;;;6.80;99.90;;;;;;5050270;28;20045;-74
2023/12/27 06:25:00;;;;;;;11.68;4.72;;;6.50;99.90;;;;;;5052177;28;20107;-77
2023/12/27 06:27:26;;;;;;;14.45;5.60;;;7.30;99.90;;;;;;5052097;28;20044;-77
2023/12/27 06:29:51;;;;;;;14.73;4.72;;;7.20;99.90;;;;;;5051573;28;20124;-74
2023/12/27 06:32:17;;;;;;;15.23;5.55;;;7.70;99.90;;;;;;5034748;28;20033;-78
2023/12/27 06:34:43;;;;;;;13.65;5.25;;;7.90;99.90;;;;;;5061538;28;20035;-73
2023/12/27 06:37:08;;;;;;;13.30;5.50;;;7.00;99.90;;;;;;5051440;28;20120;-80
2023/12/27 06:39:34;;;;;;;15.85;6.25;;;6.60;99.90;;;;;;5051051;28;20036;-72
2023/12/27 06:42:00;;;;;;;16.77;6.05;;;6.60;99.90;;;;;;5051420;28;20069;-72
2023/12/27 06:44:26;;;;;;;13.25;6.30;;;7.20;99.90;;;;;;5059502;28;20093;-78
2023/12/27 06:46:52;;;;;;;15.18;6.22;;;7.00;99.90;;;;;;5075008;28;20477;-74
2023/12/27 06:49:18;;;;;;;17.20;5.90;;;7.30;99.90;;;;;;5050841;28;20052;-74
2023/12/27 06:51:44;;;;;;;11.50;5.25;;;6.90;99.90;;;;;;5034699;28;20041;-76
2023/12/27 06:54:09;;;;;;;13.25;5.40;;;7.50;99.90;;;;;;5041371;28;20040;-78
2023/12/27 06:56:38;;;;;;;16.25;6.47;;;6.70;99.90;;;;;;5051502;28;20037;-73
2023/12/27 06:59:04;;;;;;;13.48;6.30;;;7.80;99.90;;;;;;5076942;28;20045;-79
2023/12/27 07:01:30;;;;;;;13.45;5.43;;;6.60;99.90;;;;;;5047208;28;20592;-73
2023/12/27 07:03:55;;;;;;;12.90;6.35;;;6.80;99.90;;;;;;5049206;28;20048;-77
2023/12/27 07:06:21;;;;;;;13.00;6.50;;;6.60;99.90;;;;;;5034136;28;20041;-74
2023/12/27 07:08:47;;;;;;;17.70;6.90;;;7.20;99.90;;;;;;5050960;28;20126;-75
2023/12/27 07:11:19;;;;;;;14.75;6.70;;;6.90;99.90;;;;;;5032466;28;20048;-73
2023/12/27 07:13:46;;;;;;;12.20;6.57;;;6.70;99.90;;;;;;5050870;28;20045;-74
2023/12/27 07:16:15;;;;;;;11.55;5.90;;;7.50;99.90;;;;;;5050228;28;20041;-78
2023/12/27 07:18:43;;;;;;;13.90;5.53;;;6.70;99.90;;;;;;5047929;28;20033;-74
2023/12/27 07:21:11;;;;;;;10.75;6.50;;;7.10;99.90;;;;;;5034271;28;20044;-73
2023/12/27 07:23:37;;;;;;;14.20;6.68;;;7.00;99.90;;;;;;5050668;28;20044;-76
2023/12/27 07:26:04;;;;;;;11.90;6.47;;;7.20;99.90;;;;;;5077147;28;20037;-76
2023/12/27 07:28:30;;;;;;;15.95;7.15;;;6.90;99.90;;;;;;5033677;28;20048;-75
2023/12/27 07:30:57;;;;;;;11.98;5.65;;;7.20;99.90;;;;;;5058009;28;20051;-74
2023/12/27 07:33:23;;;;;;;10.43;5.40;;;8.20;99.90;;;;;;5043022;28;20036;-79
2023/12/27 07:35:48;;;;;;;11.45;6.43;;;8.20;99.90;;;;;;5033957;28;20032;-77
2023/12/27 07:38:14;;;;;;;11.80;7.10;;;8.10;99.90;;;;;;5033679;28;20067;-77
2023/12/27 07:40:40;;;;;;;9.10;6.30;;;7.10;99.90;;;;;;5049980;28;20036;-74
2023/12/27 07:43:09;;;;;;;13.10;6.72;;;7.70;99.90;;;;;;5050306;28;20099;-77
2023/12/27 07:45:35;;;;;;;13.90;5.85;;;7.60;99.90;;;;;;5050034;28;20114;-79
2023/12/27 07:48:01;;;;;;;10.88;5.85;;;7.20;99.90;;;;;;5031288;28;20077;-74
2023/12/27 07:50:26;;;;;;;11.98;6.05;;;7.60;99.90;;;;;;5033475;28;20033;-73
2023/12/27 07:52:52;;;;;;;12.18;6.55;;;8.10;99.90;;;;;;5032287;28;20037;-74
2023/12/27 07:55:18;;;;;;;11.35;5.72;;;8.20;99.90;;;;;;5033274;28;20086;-71
2023/12/27 07:57:45;;;;;;;9.48;5.57;;;8.00;99.90;;;;;;5056691;28;20037;-75
2023/12/27 08:00:15;;;;;;;12.25;6.18;;;7.80;99.90;;;;;;5049783;28;20045;-75
2023/12/27 08:02:41;;;;;;;10.25;5.50;;;8.10;99.90;;;;;;5064677;28;20040;-80
2023/12/27 08:05:07;;;;;;;11.02;5.55;;;7.20;99.90;;;;;;5056971;28;20032;-75
2023/12/27 08:07:33;;;;;;;15.55;6.38;;;7.00;99.90;;;;;;5049479;28;20084;-74
2023/12/27 08:09:58;;;;;;;10.23;6.30;;;7.10;99.90;;;;;;5049613;28;20052;-74
2023/12/27 08:12:24;;;;;;;19.08;6.65;;;8.50;99.90;;;;;;5041615;28;20037;-75
2023/12/27 08:14:50;;;;;;;11.65;6.03;;;8.50;99.90;;;;;;5049304;28;20124;-78
2023/12/27 08:17:15;;;;;;;12.95;7.20;;;7.80;99.90;;;;;;5074269;28;20051;-76
2023/12/27 08:19:41;;;;;;;14.43;8.90;;;8.60;99.90;;;;;;5048597;28;20088;-76
2023/12/27 08:22:07;;;;;;;22.15;13.98;;;8.60;99.90;;;;;;5032368;28;20553;-75
2023/12/27 08:24:33;;;;;;;21.48;14.50;;;7.60;99.90;;;;;;5049008;28;20033;-76
2023/12/27 08:26:59;;;;;;;21.58;17.33;;;7.40;99.90;;;;;;5032948;28;20064;-75
2023/12/27 08:29:25;;;;;;;25.10;17.63;;;8.00;99.90;;;;;;5049144;28;20043;-76
2023/12/27 08:31:50;;;;;;;23.25;16.33;;;7.20;99.90;;;;;;5032632;28;20052;-76
2023/12/27 08:34:16;;;;;;;24.17;16.85;;;8.70;99.90;;;;;;5030058;28;20036;-76
2023/12/27 08:36:45;;;;;;;22.85;14.07;;;8.90;97.00;;;;;;5032439;28;20033;-77
2023/12/27 08:39:11;;;;;;;20.35;10.85;;;7.90;53.70;;;;;;5032958;28;20119;-75
2023/12/27 08:41:37;;;;;;;20.73;9.90;;;8.80;5.30;;;;;;5047065;28;20173;-77
2023/12/27 08:44:04;;;;;;;18.25;8.10;;;8.90;1.00;;;;;;5032511;28;20515;-78
2023/12/27 08:46:29;;;;;;;22.15;7.75;;;7.50;1.00;;;;;;5031320;28;20041;-79
2023/12/27 08:48:55;;;;;;;20.50;7.60;;;7.70;1.00;;;;;;5048138;28;20041;-79
2023/12/27 08:51:21;;;;;;;21.13;6.90;;;7.70;99.90;;;;;;5032091;28;20533;-75
2023/12/27 08:53:47;;;;;;;18.35;6.60;;;8.80;99.90;;;;;;5049054;28;20028;-74
2023/12/27 08:56:12;;;;;;;17.48;6.03;;;8.60;99.90;;;;;;5048406;28;20512;-77
2023/12/27 08:58:38;;;;;;;13.18;6.15;;;9.00;99.90;;;;;;5048410;28;20049;-76
2023/12/27 09:01:04;;;;;;;16.95;5.78;;;8.30;99.90;;;;;;5015555;28;20041;-75
2023/12/27 09:03:30;;;;;;;15.50;5.65;;;8.30;99.90;;;;;;5014899;28;20037;-75
2023/12/27 09:05:55;;;;;;;16.55;6.10;;;7.60;99.90;;;;;;5048467;28;20044;-77
2023/12/27 09:08:21;;;;;;;7.65;5.03;;;7.60;99.90;;;;;;5047362;28;20178;-74
2023/12/27 09:10:47;;;;;;;14.38;4.60;;;8.80;99.90;;;;;;5054213;28;20087;-79
2023/12/27 09:13:13;;;;;;;12.88;5.07;;;8.10;91.90;;;;;;5033250;28;20049;-76
2023/12/27 09:15:38;;;;;;;11.77;5.40;;;9.10;92.40;;;;;;5071913;28;20040;-76
2023/12/27 09:18:04;;;;;;;16.17;5.53;;;9.20;51.10;;;;;;5045861;28;20037;-74
2023/12/27 09:20:30;;;;;;;9.80;4.97;;;7.80;1.00;;;;;;5043797;28;20411;-74
2023/12/27 09:22:55;;;;;;;15.48;5.57;;;7.80;1.00;;;;;;5014133;28;20037;-79
2023/12/27 09:25:21;;;;;;;12.40;4.75;;;9.00;1.00;;;;;;5031901;28;20128;-74
2023/12/27 09:27:47;;;;;;;12.38;5.13;;;8.50;1.00;;;;;;5046815;28;20484;-79
2023/12/27 09:30:13;;;;;;;11.77;4.13;;;9.20;1.00;;;;;;5018779;28;20149;-77
2023/12/27 09:32:40;;;;;;;11.60;4.60;;;8.00;1.00;;;;;;5031624;28;20128;-79
2023/12/27 09:35:06;;;;;;;20.55;5.40;;;8.20;99.90;;;;;;5034828;28;20068;-76
2023/12/27 09:37:32;;;;;;;11.18;5.05;;;8.10;99.90;;;;;;5033051;28;20073;-76
2023/12/27 09:39:58;;;;;;;12.98;4.88;;;9.10;99.90;;;;;;5036584;28;20060;-76
2023/12/27 09:42:23;;;;;;;12.90;4.65;;;7.90;1.00;;;;;;5034918;28;20048;-75
2023/12/27 09:44:52;;;;;;;11.85;4.95;;;8.80;1.00;;;;;;5041336;28;20049;-77
2023/12/27 09:47:18;;;;;;;11.50;4.20;;;8.20;1.00;;;;;;5077008;28;20041;-75
2023/12/27 09:49:44;;;;;;;8.55;4.50;;;8.40;1.00;;;;;;5014906;28;20041;-75
2023/12/27 09:52:11;;;;;;;10.23;4.75;;;8.70;1.00;;;;;;5018812;28;20124;-77
2023/12/27 09:54:36;;;;;;;12.90;4.60;;;8.10;1.00;;;;;;5030124;28;20043;-77
2023/12/27 09:57:04;;;;;;;11.63;4.88;;;8.00;1.00;;;;;;5048734;28;20029;-78
2023/12/27 09:59:36;;;;;;;11.82;4.60;;;8.00;1.00;;;;;;5061063;28;20072;-76
2023/12/27 10:02:04;;;;;;;10.13;4.32;;;9.60;1.00;;;;;;5052194;28;20048;-78
2023/12/27 10:04:44;;;;;;;14.63;5.28;;;8.10;1.00;;;;;;5052226;28;20049;-76
2023/12/27 10:07:12;;;;;;;16.80;5.85;;;9.60;1.00;;;;;;5051486;28;20385;-75
2023/12/27 10:09:39;;;;;;;9.45;4.63;;;9.20;1.00;;;;;;5029862;28;20049;-74
2023/12/27 10:12:07;;;;;;;11.48;4.53;;;8.10;6.70;;;;;;5050610;28;20041;-78
2023/12/27 10:14:35;;;;;;;14.10;4.25;;;8.10;16.10;;;;;;5063178;28;20033;-79
2023/12/27 10:17:02;;;;;;;10.60;4.32;;;9.70;30.20;;;;;;5052515;28;20487;-78
2023/12/27 10:19:40;;;;;;;14.93;4.63;;;8.60;32.40;;;;;;5035317;28;20140;-79
2023/12/27 10:22:06;;;;;;;14.13;5.57;;;8.40;3.00;;;;;;5051118;28;20033;-80
2023/12/27 10:24:34;;;;;;;11.68;5.05;;;8.80;1.00;;;;;;5035301;28;20369;-77
2023/12/27 10:27:03;;;;;;;12.98;4.72;;;8.60;1.00;;;;;;5041214;28;20045;-75
2023/12/27 10:29:31;;;;;;;11.27;6.10;;;9.50;1.00;;;;;;5049145;28;20041;-80
2023/12/27 10:31:58;;;;;;;11.35;5.00;;;9.90;6.50;;;;;;5050160;28;20412;-79
2023/12/27 10:34:24;;;;;;;12.20;5.38;;;8.40;8.20;;;;;;5050808;28;20041;-77
2023/12/27 10:36:50;;;;;;;12.25;5.38;;;9.00;1.00;;;;;;5075391;28;20048;-78
2023/12/27 10:39:19;;;;;;;11.90;5.93;;;8.60;1.00;;;;;;5051823;28;20047;-79
2023/12/27 10:41:45;;;;;;;12.82;6.15;;;9.30;16.30;;;;;;5050505;28;20041;-76
2023/12/27 10:44:11;;;;;;;10.90;5.43;;;9.70;12.60;;;;;;5034503;28;20595;-76
2023/12/27 10:46:39;;;;;;;14.02;7.38;;;9.90;1.00;;;;;;5034325;28;20385;-81
2023/12/27 10:49:06;;;;;;;13.15;6.28;;;10.10;20.60;;;;;;5034895;28;20052;-76
2023/12/27 10:51:38;;;;;;;20.23;12.05;;;10.20;3.80;;;;;;5033530;28;20040;-76
2023/12/27 10:54:05;;;;;;;15.60;10.80;;;8.90;17.90;;;;;;5018984;28;20037;-75
2023/12/27 10:56:40;;;;;;;21.58;13.98;;;9.40;9.50;;;;;;5034320;28;20037;-77
2023/12/27 10:59:08;;;;;;;21.23;10.88;;;10.10;26.10;;;;;;5073036;28;20037;-78
2023/12/27 11:01:36;;;;;;;17.80;9.80;;;10.20;15.90;;;;;;5077926;28;20043;-76
2023/12/27 11:04:09;;;;;;;16.13;8.05;;;10.30;19.40;;;;;;5046799;28;20046;-79
2023/12/27 11:06:39;;;;;;;16.65;7.85;;;10.40;6.70;;;;;;5034027;28;20040;-78
2023/12/27 11:09:09;;;;;;;13.40;7.18;;;10.50;1.00;;;;;;5062777;28;20168;-80
2023/12/27 11:11:39;;;;;;;16.30;8.18;;;10.60;1.00;;;;;;5048164;28;20120;-76
2023/12/27 11:14:11;;;;;;;14.40;8.73;;;9.90;1.00;;;;;;5043537;28;20045;-76
2023/12/27 11:16:39;;;;;;;14.30;7.65;;;9.00;1.00;;;;;;5043147;28;20072;-76
2023/12/27 11:19:06;;;;;;;15.88;8.60;;;9.40;1.00;;;;;;5044268;28;20440;-77
2023/12/27 11:21:36;;;;;;;15.73;8.85;;;9.10;1.00;;;;;;5051074;28;20037;-78
2023/12/27 11:24:04;;;;;;;15.68;8.38;;;9.20;1.00;;;;;;5050381;28;20041;-73
2023/12/27 11:26:36;;;;;;;18.27;9.00;;;10.50;1.00;;;;;;5049570;28;20119;-77
2023/12/27 11:29:10;;;;;;;13.52;9.63;;;9.10;1.00;;;;;;5050058;28;21451;-79
2023/12/27 11:31:39;;;;;;;18.38;10.07;;;9.20;1.00;;;;;;5050776;28;20036;-78
2023/12/27 11:34:05;;;;;;;15.93;9.70;;;9.00;1.00;;;;;;5050594;28;20052;-76
2023/12/27 11:36:31;;;;;;;16.35;9.35;;;9.40;1.00;;;;;;5034048;28;20033;-78
2023/12/27 11:39:00;;;;;;;15.40;9.68;;;9.00;1.00;;;;;;5048482;28;20052;-75
2023/12/27 11:41:26;;;;;;;18.40;9.27;;;10.10;8.70;;;;;;5010634;28;20052;-77
2023/12/27 11:44:03;;;;;;;19.15;10.30;;;10.20;18.60;;;;;;5043239;28;20045;-77
2023/12/27 11:46:30;;;;;;;19.33;9.85;;;10.50;59.50;;;;;;5013774;28;20160;-79
2023/12/27 11:49:00;;;;;;;13.13;9.23;;;10.30;88.90;;;;;;5022249;28;20425;-77
2023/12/27 11:51:29;;;;;;;15.15;10.13;;;9.50;99.90;;;;;;5072126;28;20144;-76
2023/12/27 11:53:56;;;;;;;19.17;10.25;;;10.10;99.90;;;;;;5077969;28;20033;-79
2023/12/27 11:56:22;;;;;;;19.20;10.77;;;10.20;99.90;;;;;;5033082;28;20086;-80
2023/12/27 11:58:49;;;;;;;16.90;10.60;;;8.90;99.90;;;;;;5057941;28;20124;-75
2023/12/27 12:01:37;;;;;;;20.20;11.20;;;9.90;99.90;;;;;;5074869;28;20139;-78
2023/12/27 12:04:21;;;;;;;17.48;11.25;;;9.30;99.90;;;;;;5030457;28;20075;-79
2023/12/27 12:06:58;;;;;;;20.60;12.68;;;10.30;1.00;;;;;;5047450;28;20037;-77
2023/12/27 12:09:33;;;;;;;18.88;12.75;;;10.50;1.00;;;;;;5047621;28;20106;-76
2023/12/27 12:12:15;;;;;;;19.60;12.52;;;8.60;69.70;;;;;;5046428;28;20416;-75
2023/12/27 12:14:41;;;;;;;25.15;13.60;;;9.10;99.90;;;;;;5045348;28;20085;-78
2023/12/27 12:17:08;;;;;;;16.30;10.05;;;8.60;99.90;;;;;;5032457;28;20069;-79
2023/12/27 12:19:35;;;;;;;21.65;12.30;;;10.20;99.90;;;;;;5048810;28;20112;-78
2023/12/27 12:22:01;;;;;;;23.55;13.82;;;10.40;99.90;;;;;;5049907;28;20066;-78
2023/12/27 12:24:27;;;;;;;24.17;13.73;;;8.70;99.90;;;;;;5000443;28;20040;-75
2023/12/27 12:26:54;;;;;;;21.90;13.35;;;10.30;99.90;;;;;;5051539;28;20041;-76
2023/12/27 12:29:27;;;;;;;25.35;14.48;;;9.30;99.90;;;;;;5031454;28;20045;-78
2023/12/27 12:31:56;;;;;;;23.40;14.07;;;8.80;99.90;;;;;;5031909;28;20126;-78
2023/12/27 12:34:26;;;;;;;28.58;15.63;;;10.30;99.90;;;;;;5048724;28;20041;-79
2023/12/27 12:36:55;;;;;;;24.27;16.10;;;10.30;99.90;;;;;;5043000;28;20107;-77
2023/12/27 12:39:21;;;;;;;19.10;14.27;;;10.10;99.90;;;;;;5048300;28;20182;-79
2023/12/27 12:41:47;;;;;;;27.83;17.63;;;10.20;99.90;;;;;;5048186;28;20052;-78
2023/12/27 12:44:13;;;;;;;23.33;15.50;;;9.10;99.90;;;;;;5016277;28;20397;-77